Time;durP1;ratioP1;P1;durP2;ratioP2;P2;SDS_P1;SDS_P2;PMS_P1;PMS_P2;Temp;Humidity;BMP_temperature;BMP_pressure;BME280_temperature;BME280_humidity;BME280_pressure;Samples;Min_cycle;Max_cycle;Signal;HPM_P1;HPM_P2
2021/11/16 00:00:57;;;;;;;16.70;7.88;;;7.20;99.90;;;;;;5072101;28;20459;-60
2021/11/16 00:03:25;;;;;;;16.05;8.60;;;7.10;99.90;;;;;;5071972;27;20427;-61
2021/11/16 00:05:52;;;;;;;15.02;8.45;;;7.10;99.90;;;;;;5071862;27;20428;-61
2021/11/16 00:08:19;;;;;;;16.15;8.70;;;7.10;99.90;;;;;;5072726;28;20451;-61
2021/11/16 00:10:46;;;;;;;14.55;9.07;;;7.10;99.90;;;;;;5072791;28;20430;-61
2021/11/16 00:13:15;;;;;;;18.23;8.07;;;7.10;99.90;;;;;;5072817;28;20438;-61
2021/11/16 00:15:44;;;;;;;14.93;9.05;;;7.20;99.90;;;;;;5072756;28;20427;-61
2021/11/16 00:18:11;;;;;;;14.02;7.50;;;7.20;99.90;;;;;;5072812;28;20427;-61
2021/11/16 00:20:43;;;;;;;16.77;8.35;;;7.20;99.90;;;;;;5072959;27;20838;-61
2021/11/16 00:23:16;;;;;;;13.73;8.73;;;7.20;99.90;;;;;;5072819;27;20862;-61
2021/11/16 00:25:44;;;;;;;14.23;7.75;;;7.20;99.90;;;;;;5071953;27;20428;-61
2021/11/16 00:28:11;;;;;;;16.30;8.02;;;7.20;99.90;;;;;;5072767;27;20439;-61
2021/11/16 00:30:40;;;;;;;16.25;8.65;;;7.10;99.90;;;;;;5072011;28;20416;-61
2021/11/16 00:33:07;;;;;;;14.05;7.45;;;7.10;99.90;;;;;;5072204;27;20423;-61
2021/11/16 00:35:38;;;;;;;15.50;8.10;;;7.10;99.90;;;;;;5071629;28;20424;-61
2021/11/16 00:38:07;;;;;;;16.23;8.82;;;7.10;99.90;;;;;;5071884;27;20480;-60
2021/11/16 00:40:34;;;;;;;19.75;8.57;;;7.10;99.90;;;;;;5072031;28;20432;-61
2021/11/16 00:43:04;;;;;;;16.20;8.50;;;7.00;99.90;;;;;;5071604;28;20765;-61
2021/11/16 00:45:32;;;;;;;17.35;8.82;;;7.10;99.90;;;;;;5071505;27;20422;-61
2021/11/16 00:48:00;;;;;;;16.45;9.38;;;7.10;99.90;;;;;;5071824;28;20716;-61
2021/11/16 00:50:27;;;;;;;17.65;8.85;;;7.00;99.90;;;;;;5072177;28;20408;-61
2021/11/16 00:52:54;;;;;;;17.58;9.25;;;7.10;99.90;;;;;;5071537;27;20427;-61
2021/11/16 00:55:22;;;;;;;16.30;8.95;;;7.10;99.90;;;;;;5072135;28;20420;-61
2021/11/16 00:57:49;;;;;;;20.13;9.18;;;7.10;99.90;;;;;;5071535;27;20419;-61
2021/11/16 01:00:17;;;;;;;12.40;7.05;;;7.20;99.90;;;;;;5071796;28;20426;-61
2021/11/16 01:02:45;;;;;;;13.13;7.28;;;7.20;99.90;;;;;;5072010;27;20431;-61
2021/11/16 01:05:14;;;;;;;16.45;8.45;;;7.20;99.90;;;;;;5071850;28;20419;-61
2021/11/16 01:07:42;;;;;;;15.45;8.50;;;7.20;99.90;;;;;;5071427;27;20439;-61
2021/11/16 01:10:11;;;;;;;15.77;8.45;;;7.30;99.90;;;;;;5072306;27;20416;-61
2021/11/16 01:12:39;;;;;;;16.63;7.97;;;7.40;99.90;;;;;;5072054;27;20424;-61
2021/11/16 01:15:09;;;;;;;10.77;6.38;;;7.60;99.90;;;;;;5071639;27;20420;-61
2021/11/16 01:17:36;;;;;;;17.20;8.57;;;7.60;99.90;;;;;;5071162;28;20420;-63
2021/11/16 01:20:08;;;;;;;14.95;7.25;;;7.60;99.90;;;;;;5070745;27;20419;-61
2021/11/16 01:22:37;;;;;;;15.38;8.02;;;7.40;99.90;;;;;;5070093;27;20819;-61
2021/11/16 01:25:06;;;;;;;15.10;7.33;;;7.20;99.90;;;;;;5070096;27;20488;-61
2021/11/16 01:27:35;;;;;;;18.27;8.77;;;7.10;99.90;;;;;;5069731;28;20432;-61
2021/11/16 01:30:05;;;;;;;15.65;8.57;;;7.10;99.90;;;;;;5069799;28;20430;-61
2021/11/16 01:32:34;;;;;;;14.80;8.07;;;7.00;99.90;;;;;;5069388;28;20839;-61
2021/11/16 01:35:02;;;;;;;17.20;9.25;;;6.90;99.90;;;;;;5070167;28;20424;-61
2021/11/16 01:37:29;;;;;;;15.07;8.20;;;6.90;99.90;;;;;;5069974;28;20427;-60
2021/11/16 01:39:57;;;;;;;14.80;8.48;;;7.00;99.90;;;;;;5071151;28;20420;-61
2021/11/16 01:42:25;;;;;;;14.10;8.90;;;7.10;99.90;;;;;;5070559;28;20428;-61
2021/11/16 01:44:52;;;;;;;17.67;8.88;;;7.10;99.90;;;;;;5071162;27;20424;-61
2021/11/16 01:47:20;;;;;;;13.93;7.45;;;7.10;99.90;;;;;;5070573;28;20436;-61
2021/11/16 01:49:48;;;;;;;15.05;8.68;;;7.10;99.90;;;;;;5069969;28;20784;-60
2021/11/16 01:52:15;;;;;;;17.58;8.98;;;7.10;99.90;;;;;;5069933;27;20862;-61
2021/11/16 01:54:42;;;;;;;15.05;6.80;;;7.10;99.90;;;;;;5069854;28;20830;-61
2021/11/16 01:57:11;;;;;;;17.45;8.02;;;7.20;99.90;;;;;;5070094;28;20425;-61
2021/11/16 01:59:39;;;;;;;13.98;7.95;;;7.20;99.90;;;;;;5070619;27;20850;-61
2021/11/16 02:02:07;;;;;;;14.65;7.35;;;7.20;99.90;;;;;;5070545;28;20431;-61
2021/11/16 02:04:34;;;;;;;15.38;7.63;;;7.20;99.90;;;;;;5070560;28;20511;-60
2021/11/16 02:07:02;;;;;;;15.57;7.80;;;7.10;99.90;;;;;;5071206;27;20436;-61
2021/11/16 02:09:30;;;;;;;15.85;8.45;;;7.10;99.90;;;;;;5071981;27;20846;-61
2021/11/16 02:11:57;;;;;;;14.05;7.32;;;7.10;99.90;;;;;;5074500;27;20427;-60
2021/11/16 02:14:26;;;;;;;15.98;8.15;;;7.10;99.90;;;;;;5074665;27;20491;-60
2021/11/16 02:16:53;;;;;;;13.23;7.05;;;7.00;99.90;;;;;;5074823;28;20798;-60
2021/11/16 02:19:22;;;;;;;15.88;7.78;;;7.00;99.90;;;;;;5074687;27;20476;-61
2021/11/16 02:21:51;;;;;;;13.57;7.25;;;7.00;99.90;;;;;;5074656;27;20713;-60
2021/11/16 02:24:18;;;;;;;16.55;7.57;;;7.10;99.90;;;;;;5074053;27;20775;-61
2021/11/16 02:26:45;;;;;;;12.80;7.10;;;7.20;99.90;;;;;;5073873;27;20443;-61
2021/11/16 02:29:13;;;;;;;14.23;7.80;;;7.10;99.90;;;;;;5074082;28;20707;-60
2021/11/16 02:31:40;;;;;;;15.02;8.30;;;7.20;99.90;;;;;;5073746;27;20435;-61
2021/11/16 02:34:08;;;;;;;14.57;7.40;;;7.20;99.90;;;;;;5073809;27;20423;-61
2021/11/16 02:36:36;;;;;;;14.02;7.63;;;7.10;99.90;;;;;;5073372;28;20431;-61
2021/11/16 02:39:07;;;;;;;12.23;7.40;;;7.20;99.90;;;;;;5072539;27;20784;-61
2021/11/16 02:41:34;;;;;;;14.05;7.00;;;7.10;99.90;;;;;;5073354;28;20446;-61
2021/11/16 02:44:04;;;;;;;12.25;6.45;;;7.20;99.90;;;;;;5073379;27;20842;-61
2021/11/16 02:46:32;;;;;;;13.07;6.28;;;7.30;99.90;;;;;;5072731;27;20420;-61
2021/11/16 02:49:00;;;;;;;13.80;6.75;;;7.30;99.90;;;;;;5072831;28;20419;-61
2021/11/16 02:51:27;;;;;;;15.20;6.97;;;7.20;99.90;;;;;;5073458;27;20764;-60
2021/11/16 02:53:54;;;;;;;15.88;6.93;;;7.10;99.90;;;;;;5074480;27;20464;-60
2021/11/16 02:56:23;;;;;;;10.10;6.22;;;7.00;99.90;;;;;;5074177;28;20746;-60
2021/11/16 02:58:50;;;;;;;12.43;7.20;;;7.00;99.90;;;;;;5074293;28;20420;-61
2021/11/16 03:01:20;;;;;;;11.75;7.03;;;7.10;99.90;;;;;;5073706;28;20790;-61
2021/11/16 03:03:48;;;;;;;10.85;5.60;;;7.20;99.90;;;;;;5074494;28;20428;-61
2021/11/16 03:06:15;;;;;;;12.05;6.47;;;7.20;99.90;;;;;;5074085;28;20480;-60
2021/11/16 03:08:43;;;;;;;11.90;6.35;;;7.20;99.90;;;;;;5074062;28;20839;-61
2021/11/16 03:11:12;;;;;;;11.70;6.75;;;7.30;99.90;;;;;;5074183;28;20696;-61
2021/11/16 03:13:41;;;;;;;14.02;6.95;;;7.30;99.90;;;;;;5074159;28;20420;-61
2021/11/16 03:16:11;;;;;;;10.32;6.13;;;7.30;99.90;;;;;;5074371;28;20423;-61
2021/11/16 03:18:39;;;;;;;12.18;6.28;;;7.20;99.90;;;;;;5074308;27;20419;-61
2021/11/16 03:21:06;;;;;;;10.63;5.63;;;7.30;99.90;;;;;;5072833;27;20420;-61
2021/11/16 03:23:34;;;;;;;14.43;7.03;;;7.40;99.90;;;;;;5073871;28;20432;-60
2021/11/16 03:26:03;;;;;;;12.32;7.30;;;7.20;99.90;;;;;;5073716;28;21096;-61
2021/11/16 03:28:33;;;;;;;14.35;7.03;;;7.10;99.90;;;;;;5074048;28;20438;-60
2021/11/16 03:31:10;;;;;;;14.38;7.10;;;7.10;99.90;;;;;;5073686;27;20453;-61
2021/11/16 03:33:39;;;;;;;13.75;7.57;;;7.00;99.90;;;;;;5074099;27;20415;-61
2021/11/16 03:36:07;;;;;;;16.27;8.10;;;7.00;99.90;;;;;;5072991;27;20416;-61
2021/11/16 03:38:35;;;;;;;14.48;7.10;;;7.10;99.90;;;;;;5072433;27;20450;-61
2021/11/16 03:41:02;;;;;;;14.20;6.78;;;7.10;99.90;;;;;;5072122;28;20423;-61
2021/11/16 03:43:29;;;;;;;15.70;7.87;;;7.10;99.90;;;;;;5072351;27;20846;-61
2021/11/16 03:45:58;;;;;;;13.10;6.50;;;7.20;99.90;;;;;;5071825;27;20430;-61
2021/11/16 03:48:29;;;;;;;10.38;5.95;;;7.20;99.90;;;;;;5072072;27;20923;-61
2021/11/16 03:50:57;;;;;;;12.90;6.83;;;7.20;99.90;;;;;;5072197;27;20842;-61
2021/11/16 03:53:24;;;;;;;14.80;6.35;;;7.10;99.90;;;;;;5072012;28;20443;-61
2021/11/16 03:55:51;;;;;;;12.65;6.00;;;7.10;99.90;;;;;;5071882;27;20708;-61
2021/11/16 03:58:21;;;;;;;11.60;5.13;;;7.20;99.90;;;;;;5072401;27;20424;-61
2021/11/16 04:00:51;;;;;;;12.37;6.13;;;7.20;99.90;;;;;;5073213;27;20419;-60
2021/11/16 04:03:20;;;;;;;11.23;5.05;;;7.10;99.90;;;;;;5073150;28;20483;-60
2021/11/16 04:05:49;;;;;;;10.65;5.57;;;6.90;99.90;;;;;;5073398;28;20492;-61
2021/11/16 04:08:16;;;;;;;13.07;7.40;;;6.90;99.90;;;;;;5073067;28;20440;-61
2021/11/16 04:10:43;;;;;;;13.93;6.70;;;7.10;99.90;;;;;;5073209;27;20420;-61
2021/11/16 04:13:12;;;;;;;14.43;6.30;;;7.10;99.90;;;;;;5073358;27;20420;-60
2021/11/16 04:15:39;;;;;;;13.00;6.15;;;6.90;99.90;;;;;;5073176;27;20428;-60
2021/11/16 04:18:10;;;;;;;14.02;7.07;;;6.80;99.90;;;;;;5072661;28;20424;-60
2021/11/16 04:20:40;;;;;;;13.70;6.82;;;6.70;99.90;;;;;;5072656;28;20430;-59
2021/11/16 04:23:12;;;;;;;10.33;5.83;;;6.80;99.90;;;;;;5073254;28;20420;-60
2021/11/16 04:25:41;;;;;;;10.55;5.50;;;6.90;99.90;;;;;;5072789;28;20415;-59
2021/11/16 04:28:11;;;;;;;13.13;6.50;;;7.00;99.90;;;;;;5072477;27;20498;-61
2021/11/16 04:30:38;;;;;;;12.52;5.47;;;7.20;99.90;;;;;;5072424;27;20476;-60
2021/11/16 04:33:06;;;;;;;11.65;6.68;;;7.40;99.90;;;;;;5072312;27;20427;-59
2021/11/16 04:35:34;;;;;;;11.87;6.40;;;7.30;99.90;;;;;;5072413;28;20415;-59
2021/11/16 04:38:04;;;;;;;10.65;5.60;;;7.20;99.90;;;;;;5072516;27;20419;-59
2021/11/16 04:40:36;;;;;;;12.07;5.85;;;7.10;99.90;;;;;;5072976;28;20436;-60
2021/11/16 04:43:06;;;;;;;13.93;7.00;;;7.10;99.90;;;;;;5072625;28;20442;-60
2021/11/16 04:45:35;;;;;;;14.70;6.35;;;6.90;99.90;;;;;;5072498;27;20423;-60
2021/11/16 04:48:05;;;;;;;11.05;5.50;;;6.90;99.90;;;;;;5072722;27;20439;-60
2021/11/16 04:50:43;;;;;;;14.90;7.00;;;6.80;99.90;;;;;;5072658;28;20772;-60
2021/11/16 04:53:24;;;;;;;12.48;6.78;;;6.80;99.90;;;;;;5071832;28;20484;-60
2021/11/16 04:59:27;;;;;;;14.52;6.68;;;6.70;99.90;;;;;;5072755;28;20424;-60
2021/11/16 05:04:11;;;;;;;14.25;5.63;;;6.60;99.90;;;;;;5072329;28;20488;-60
2021/11/16 05:06:38;;;;;;;15.30;6.55;;;6.80;99.90;;;;;;5072023;28;20431;-60
2021/11/16 05:09:05;;;;;;;12.95;6.15;;;6.80;99.90;;;;;;5072129;28;20435;-60
2021/11/16 05:11:34;;;;;;;11.35;6.28;;;6.80;99.90;;;;;;5071521;28;20427;-60
2021/11/16 05:14:01;;;;;;;12.88;6.50;;;6.80;99.90;;;;;;5071774;28;20419;-60
2021/11/16 05:16:28;;;;;;;14.65;5.82;;;6.60;99.90;;;;;;5071239;27;20419;-60
2021/11/16 05:18:55;;;;;;;13.93;7.18;;;6.60;99.90;;;;;;5071908;28;20469;-60
2021/11/16 05:21:23;;;;;;;16.75;7.75;;;6.50;99.90;;;;;;5071112;28;20996;-60
2021/11/16 05:23:52;;;;;;;15.02;7.97;;;6.50;99.90;;;;;;5068632;28;20535;-60
2021/11/16 05:26:20;;;;;;;12.30;6.40;;;6.60;99.90;;;;;;5068047;27;20835;-60
2021/11/16 05:28:48;;;;;;;13.00;6.60;;;6.70;99.90;;;;;;5068130;27;20487;-59
2021/11/16 05:31:16;;;;;;;11.60;5.72;;;6.80;99.90;;;;;;5068618;28;20427;-58
2021/11/16 05:33:43;;;;;;;14.63;6.97;;;6.80;99.90;;;;;;5067454;28;20431;-59
2021/11/16 05:36:11;;;;;;;12.30;6.38;;;6.80;99.90;;;;;;5068339;27;20739;-59
2021/11/16 05:38:40;;;;;;;12.35;6.85;;;6.70;99.90;;;;;;5069127;27;20783;-59
2021/11/16 05:41:09;;;;;;;14.55;6.60;;;6.80;99.90;;;;;;5069650;27;20730;-58
2021/11/16 05:43:37;;;;;;;13.85;6.20;;;6.80;99.90;;;;;;5070231;27;20428;-58
2021/11/16 05:46:05;;;;;;;14.25;6.60;;;6.80;99.90;;;;;;5072606;27;20423;-58
2021/11/16 05:48:34;;;;;;;12.50;6.32;;;6.70;99.90;;;;;;5074083;27;20443;-61
2021/11/16 05:51:01;;;;;;;12.35;6.55;;;6.60;99.90;;;;;;5074629;27;20420;-60
2021/11/16 05:53:29;;;;;;;12.47;6.30;;;6.70;99.90;;;;;;5074477;27;20435;-60
2021/11/16 05:55:59;;;;;;;10.73;5.85;;;6.70;99.90;;;;;;5073935;28;20455;-60
2021/11/16 05:58:27;;;;;;;12.00;6.07;;;6.70;99.90;;;;;;5074075;28;20505;-60
2021/11/16 06:00:54;;;;;;;13.43;6.70;;;6.70;99.90;;;;;;5073245;28;20424;-60
2021/11/16 06:03:22;;;;;;;12.70;6.23;;;6.60;99.90;;;;;;5078682;27;20431;-60
2021/11/16 06:05:50;;;;;;;15.13;6.20;;;6.60;99.90;;;;;;5073071;28;20427;-60
2021/11/16 06:08:21;;;;;;;13.25;6.32;;;6.60;99.90;;;;;;5074130;28;20444;-62
2021/11/16 06:10:48;;;;;;;11.73;5.45;;;6.50;99.90;;;;;;5074053;28;20443;-62
2021/11/16 06:13:16;;;;;;;13.52;6.97;;;6.40;99.90;;;;;;5074336;28;20431;-60
2021/11/16 06:15:43;;;;;;;12.60;6.13;;;6.40;99.90;;;;;;5074159;28;20415;-60
2021/11/16 06:18:10;;;;;;;15.07;6.30;;;6.40;99.90;;;;;;5074190;28;20829;-61
2021/11/16 06:20:40;;;;;;;11.75;5.32;;;6.50;99.90;;;;;;5073781;28;20427;-60
2021/11/16 06:23:10;;;;;;;15.97;6.80;;;6.40;99.90;;;;;;5073036;28;20427;-61
2021/11/16 06:25:38;;;;;;;13.10;5.45;;;6.40;99.90;;;;;;5072810;28;20711;-60
2021/11/16 06:28:06;;;;;;;13.25;5.43;;;6.40;99.90;;;;;;5070601;28;20500;-60
2021/11/16 06:30:34;;;;;;;13.00;5.22;;;6.40;99.90;;;;;;5072045;28;20899;-60
2021/11/16 06:33:09;;;;;;;14.45;6.43;;;6.40;99.90;;;;;;5073351;28;20434;-60
2021/11/16 06:35:44;;;;;;;12.37;6.00;;;6.40;99.90;;;;;;5072324;28;20912;-60
2021/11/16 06:38:14;;;;;;;11.00;5.38;;;6.40;99.90;;;;;;5071835;28;20431;-60
2021/11/16 06:40:47;;;;;;;11.07;5.28;;;6.40;99.90;;;;;;5071042;28;20502;-60
2021/11/16 06:43:27;;;;;;;12.60;5.15;;;6.40;99.90;;;;;;5071264;27;20907;-59
2021/11/16 06:45:57;;;;;;;12.40;5.57;;;6.50;99.90;;;;;;5070028;28;20424;-59
2021/11/16 06:48:28;;;;;;;10.40;4.95;;;6.60;99.90;;;;;;5070049;28;20815;-60
2021/11/16 06:50:58;;;;;;;9.38;4.70;;;6.60;99.90;;;;;;5069836;27;20419;-60
2021/11/16 06:53:31;;;;;;;9.18;4.80;;;6.60;99.90;;;;;;5069379;28;20463;-59
2021/11/16 06:56:02;;;;;;;8.30;4.15;;;6.50;99.90;;;;;;5063491;28;20653;-60
2021/11/16 06:58:30;;;;;;;9.45;4.32;;;6.50;99.90;;;;;;5066033;28;20424;-60
2021/11/16 07:01:08;;;;;;;10.20;3.83;;;6.60;99.90;;;;;;5065888;28;20847;-59
2021/11/16 07:03:36;;;;;;;9.68;4.57;;;6.50;99.90;;;;;;5066422;27;20784;-60
2021/11/16 07:06:06;;;;;;;6.13;3.28;;;6.50;99.90;;;;;;5066245;28;20427;-61
2021/11/16 07:08:36;;;;;;;9.13;3.47;;;6.50;99.90;;;;;;5068232;28;20463;-59
2021/11/16 07:11:12;;;;;;;8.55;3.45;;;6.60;99.90;;;;;;5061484;27;20438;-59
2021/11/16 07:13:55;;;;;;;10.63;4.22;;;6.80;99.90;;;;;;5062161;28;20471;-59
2021/11/16 07:16:30;;;;;;;8.63;3.38;;;6.70;99.90;;;;;;5069985;28;20702;-58
2021/11/16 07:19:01;;;;;;;7.22;3.03;;;6.60;99.90;;;;;;5069497;27;20787;-59
2021/11/16 07:21:44;;;;;;;8.32;3.40;;;6.50;99.90;;;;;;5069854;28;21024;-58
2021/11/16 07:24:15;;;;;;;11.90;4.53;;;6.50;99.90;;;;;;5069103;28;20854;-59
2021/11/16 07:26:44;;;;;;;11.45;5.60;;;6.40;99.90;;;;;;5068414;28;20783;-60
2021/11/16 07:29:15;;;;;;;9.38;4.65;;;6.40;99.90;;;;;;5070120;27;20432;-59
2021/11/16 07:31:44;;;;;;;11.98;4.82;;;6.30;99.90;;;;;;5070060;28;20431;-59
2021/11/16 07:34:17;;;;;;;9.85;5.07;;;6.30;99.90;;;;;;5066904;28;20440;-58
2021/11/16 07:37:00;;;;;;;10.88;4.50;;;6.40;99.90;;;;;;5078657;27;20431;-58
2021/11/16 07:39:30;;;;;;;11.48;5.28;;;6.40;99.90;;;;;;5066332;27;20424;-58
2021/11/16 07:42:10;;;;;;;10.90;4.72;;;6.40;99.90;;;;;;5065924;28;20436;-60
2021/11/16 07:44:38;;;;;;;7.90;3.83;;;6.50;99.90;;;;;;5068987;27;20483;-58
2021/11/16 07:47:11;;;;;;;7.78;3.88;;;6.50;99.90;;;;;;5069090;28;20506;-59
2021/11/16 07:49:49;;;;;;;6.85;3.00;;;6.50;99.90;;;;;;5066823;27;20632;-59
2021/11/16 07:52:29;;;;;;;7.75;4.10;;;7.00;99.90;;;;;;5064538;27;20459;-57
2021/11/16 07:54:56;;;;;;;6.70;3.10;;;7.10;99.90;;;;;;5048516;28;20497;-58
2021/11/16 07:57:24;;;;;;;7.43;3.53;;;7.10;99.90;;;;;;5049080;28;20421;-58
2021/11/16 07:59:56;;;;;;;9.97;5.53;;;7.00;99.90;;;;;;5047033;28;20429;-59
2021/11/16 08:02:33;;;;;;;11.13;3.80;;;6.80;99.90;;;;;;5048850;28;20428;-59
2021/11/16 08:05:22;;;;;;;7.65;3.88;;;6.80;99.90;;;;;;5049472;28;20434;-59
2021/11/16 08:11:25;;;;;;;8.55;4.10;;;7.00;99.90;;;;;;5045032;28;20413;-58
2021/11/16 08:14:00;;;;;;;8.13;3.63;;;7.20;99.90;;;;;;5050159;28;20433;-58
2021/11/16 08:16:32;;;;;;;7.28;3.88;;;7.30;99.90;;;;;;5050601;28;20516;-58
2021/11/16 08:19:06;;;;;;;6.63;2.80;;;7.20;99.90;;;;;;5051397;28;20429;-59
2021/11/16 08:21:55;;;;;;;5.97;2.07;;;7.20;99.90;;;;;;5057772;28;20458;-59
2021/11/16 08:27:17;;;;;;;8.37;2.10;;;7.30;99.90;;;;;;5056967;28;20882;-59
2021/11/16 08:29:46;;;;;;;5.13;1.73;;;7.10;99.90;;;;;;5069515;28;20481;-58
2021/11/16 08:32:19;;;;;;;8.17;3.27;;;7.20;99.90;;;;;;5070881;28;20446;-58
2021/11/16 08:34:49;;;;;;;5.97;2.33;;;7.10;99.90;;;;;;5091542;27;20512;-60
2021/11/16 08:37:17;;;;;;;4.90;2.53;;;7.10;99.90;;;;;;5092082;27;20449;-60
2021/11/16 08:39:50;;;;;;;6.07;1.67;;;7.10;99.90;;;;;;5091647;28;20465;-62
2021/11/16 08:42:26;;;;;;;10.60;3.57;;;7.00;99.90;;;;;;5091417;28;20453;-63
2021/11/16 08:44:59;;;;;;;8.90;2.80;;;7.00;99.90;;;;;;5090938;28;20456;-63
2021/11/16 08:47:41;;;;;;;7.67;2.47;;;7.00;99.90;;;;;;5090853;28;20446;-62
2021/11/16 08:50:16;;;;;;;6.30;1.90;;;7.20;99.90;;;;;;5089950;27;20485;-62
2021/11/16 08:52:44;;;;;;;8.73;3.67;;;7.10;99.90;;;;;;5090094;28;20445;-63
2021/11/16 08:55:19;;;;;;;6.77;2.73;;;7.10;99.90;;;;;;5090130;28;20699;-62
2021/11/16 08:57:53;;;;;;;8.03;2.80;;;7.10;99.90;;;;;;5092507;27;20423;-62
2021/11/16 09:00:33;;;;;;;8.57;3.23;;;7.10;99.90;;;;;;5090751;28;20456;-63
2021/11/16 09:03:15;;;;;;;13.13;4.23;;;7.20;99.90;;;;;;5090818;28;20492;-61
2021/11/16 09:05:52;;;;;;;5.60;1.80;;;7.20;99.90;;;;;;5090041;28;20892;-62
2021/11/16 09:08:25;;;;;;;8.27;2.83;;;7.10;99.90;;;;;;5067389;28;20486;-61
2021/11/16 09:11:04;;;;;;;8.10;2.40;;;7.10;99.90;;;;;;5068252;27;20457;-62
2021/11/16 09:13:36;;;;;;;8.00;3.30;;;7.00;99.90;;;;;;5067051;27;20465;-60
2021/11/16 09:16:14;;;;;;;5.93;2.60;;;6.90;99.90;;;;;;5069401;27;20745;-60
2021/11/16 09:18:49;;;;;;;6.60;1.73;;;6.70;99.90;;;;;;5067417;28;20956;-60
2021/11/16 09:21:31;;;;;;;3.13;1.50;;;6.70;99.90;;;;;;5069199;28;20773;-60
2021/11/16 09:24:12;;;;;;;4.13;1.70;;;6.70;99.90;;;;;;5067594;28;20477;-60
2021/11/16 09:26:57;;;;;;;7.67;1.37;;;6.70;99.90;;;;;;5069436;27;20412;-60
2021/11/16 09:29:27;;;;;;;3.43;1.27;;;6.70;99.90;;;;;;5068484;27;20937;-60
2021/11/16 09:32:01;;;;;;;4.63;1.27;;;7.20;99.90;;;;;;5067176;27;20826;-60
2021/11/16 09:34:41;;;;;;;2.93;1.40;;;7.40;99.90;;;;;;5067521;27;20804;-59
2021/11/16 09:37:25;;;;;;;3.20;1.30;;;7.50;99.90;;;;;;5067835;27;20463;-60
2021/11/16 09:39:56;;;;;;;2.77;1.17;;;7.70;99.90;;;;;;5067742;28;21159;-60
2021/11/16 09:42:30;;;;;;;3.40;0.80;;;7.50;99.90;;;;;;5068745;28;20447;-60
2021/11/16 09:45:03;;;;;;;2.53;0.90;;;7.40;99.90;;;;;;5071536;28;20544;-60
2021/11/16 09:47:32;;;;;;;3.63;1.10;;;7.40;99.90;;;;;;5068892;28;20530;-59
2021/11/16 09:50:02;;;;;;;4.13;1.50;;;7.40;99.90;;;;;;5069378;28;20658;-59
2021/11/16 09:52:32;;;;;;;4.30;1.03;;;7.20;99.90;;;;;;5070697;28;20451;-59
2021/11/16 09:55:10;;;;;;;3.85;1.10;;;7.20;99.90;;;;;;5069346;28;20468;-59
2021/11/16 09:57:46;;;;;;;4.13;1.00;;;7.30;99.90;;;;;;5069048;28;20254;-59
2021/11/16 10:00:24;;;;;;;3.03;1.00;;;7.30;99.90;;;;;;5070013;28;20494;-59
2021/11/16 10:02:59;;;;;;;4.50;0.97;;;7.50;99.90;;;;;;5069727;28;20939;-59
2021/11/16 10:05:38;;;;;;;2.90;1.13;;;7.50;99.90;;;;;;5069323;28;21007;-59
2021/11/16 10:08:10;;;;;;;4.73;0.90;;;7.50;99.90;;;;;;5064594;27;20477;-60
2021/11/16 10:10:42;;;;;;;1.60;0.67;;;7.70;99.90;;;;;;5066301;27;20964;-60
2021/11/16 10:13:24;;;;;;;2.70;1.00;;;7.70;99.90;;;;;;5067352;27;20545;-59
2021/11/16 10:15:57;;;;;;;2.67;0.90;;;7.60;99.90;;;;;;5066210;28;20446;-58
2021/11/16 10:21:15;;;;;;;4.37;0.90;;;7.80;99.90;;;;;;5067493;28;20982;-58
2021/11/16 10:23:47;;;;;;;5.70;1.10;;;7.70;99.90;;;;;;5067659;28;20450;-57
2021/11/16 10:26:16;;;;;;;2.53;1.10;;;7.80;99.90;;;;;;5069044;27;20892;-58
2021/11/16 10:28:49;;;;;;;3.37;1.40;;;8.10;99.90;;;;;;5051798;28;20443;-58
2021/11/16 10:31:26;;;;;;;2.60;0.90;;;8.30;99.90;;;;;;5058148;28;20457;-58
2021/11/16 10:33:58;;;;;;;8.87;1.77;;;8.30;99.90;;;;;;5073945;28;20442;-57
2021/11/16 10:36:29;;;;;;;6.17;1.33;;;8.30;99.90;;;;;;5071453;28;20756;-58
2021/11/16 10:39:07;;;;;;;3.03;1.10;;;8.10;99.90;;;;;;5069970;27;20443;-58
2021/11/16 10:41:37;;;;;;;1.40;0.90;;;8.10;99.90;;;;;;5070997;28;20533;-56
2021/11/16 10:44:11;;;;;;;2.53;0.97;;;7.90;99.90;;;;;;5071232;28;20451;-57
2021/11/16 10:46:41;;;;;;;4.83;1.00;;;7.50;99.90;;;;;;5071694;28;20454;-56
2021/11/16 10:49:14;;;;;;;3.80;0.90;;;7.30;99.90;;;;;;5065877;28;21095;-56
2021/11/16 10:51:45;;;;;;;3.77;0.80;;;7.30;99.90;;;;;;5069255;28;20470;-56
2021/11/16 10:54:16;;;;;;;2.73;1.00;;;7.50;99.90;;;;;;5072261;28;20458;-57
2021/11/16 10:56:47;;;;;;;4.97;0.87;;;7.50;99.90;;;;;;5073593;28;20837;-58
2021/11/16 10:59:29;;;;;;;1.50;0.80;;;7.30;99.90;;;;;;5071272;27;20454;-56
2021/11/16 11:01:58;;;;;;;2.60;1.13;;;7.90;99.90;;;;;;5078258;28;20752;-56
2021/11/16 11:04:40;;;;;;;3.20;1.33;;;7.60;99.90;;;;;;5070750;28;20458;-53
2021/11/16 11:07:15;;;;;;;3.87;0.90;;;7.40;99.90;;;;;;5070811;27;20783;-56
2021/11/16 11:09:58;;;;;;;2.90;0.90;;;7.20;99.90;;;;;;5069645;28;20529;-55
2021/11/16 11:12:35;;;;;;;2.70;1.03;;;7.10;99.90;;;;;;5069737;28;20543;-56
2021/11/16 11:15:32;;;;;;;2.78;0.90;;;7.20;99.90;;;;;;5060908;28;20458;-56
2021/11/16 11:18:06;;;;;;;2.40;0.90;;;7.20;99.90;;;;;;5051753;28;20743;-55
2021/11/16 11:20:46;;;;;;;1.60;0.77;;;7.50;99.90;;;;;;5084255;27;20458;-58
2021/11/16 11:23:47;;;;;;;2.03;0.90;;;7.50;99.90;;;;;;5068167;28;20451;-53
2021/11/16 11:26:30;;;;;;;0.90;0.60;;;7.50;99.90;;;;;;5068829;27;20798;-57
2021/11/16 11:29:21;;;;;;;1.70;0.90;;;7.40;99.90;;;;;;5070202;28;20466;-55
2021/11/16 11:32:00;;;;;;;1.10;0.60;;;7.50;99.90;;;;;;5070911;27;20443;-55
2021/11/16 11:34:42;;;;;;;3.00;0.80;;;7.30;99.90;;;;;;5068488;27;20447;-55
2021/11/16 11:37:14;;;;;;;1.30;0.50;;;7.50;99.90;;;;;;5071104;28;20502;-55
2021/11/16 11:39:45;;;;;;;1.60;0.70;;;7.50;99.90;;;;;;5070376;28;20537;-54
2021/11/16 11:42:18;;;;;;;2.10;0.70;;;7.50;99.90;;;;;;5069826;27;20451;-57
2021/11/16 11:45:10;;;;;;;0.90;0.50;;;7.70;99.90;;;;;;5069591;28;20925;-62
2021/11/16 11:47:42;;;;;;;1.30;0.60;;;7.60;99.90;;;;;;5067932;28;20447;-63
2021/11/16 11:50:29;;;;;;;1.67;0.60;;;7.50;99.90;;;;;;5063897;28;20502;-62
2021/11/16 11:52:58;;;;;;;1.83;0.70;;;7.90;99.90;;;;;;5067129;28;20931;-63
2021/11/16 11:55:27;;;;;;;2.20;0.80;;;8.40;99.90;;;;;;5066363;28;20905;-63
2021/11/16 11:57:55;;;;;;;2.80;0.80;;;8.30;99.90;;;;;;5067928;28;20455;-63
2021/11/16 12:00:33;;;;;;;1.60;0.63;;;8.00;99.90;;;;;;5067159;28;20738;-63
2021/11/16 12:03:09;;;;;;;2.10;0.73;;;7.80;99.90;;;;;;5068583;28;20772;-64
2021/11/16 12:05:39;;;;;;;1.90;0.60;;;7.60;99.90;;;;;;5066807;28;20457;-63
2021/11/16 12:08:07;;;;;;;3.13;0.80;;;7.50;99.90;;;;;;5069353;28;20439;-64
2021/11/16 12:10:35;;;;;;;1.77;0.70;;;7.60;99.90;;;;;;5068924;28;20542;-64
2021/11/16 12:13:04;;;;;;;2.00;0.83;;;7.70;99.90;;;;;;5071374;28;20885;-64
2021/11/16 12:15:37;;;;;;;7.20;1.10;;;7.60;99.90;;;;;;5070047;27;20806;-63
2021/11/16 12:18:09;;;;;;;4.43;1.50;;;7.70;99.90;;;;;;5066581;28;20449;-64
2021/11/16 12:20:41;;;;;;;2.03;0.90;;;7.60;99.90;;;;;;5068673;28;20443;-65
2021/11/16 12:23:11;;;;;;;3.23;0.70;;;7.50;99.90;;;;;;5069524;28;20454;-64
2021/11/16 12:25:39;;;;;;;1.80;0.67;;;7.40;99.90;;;;;;5070119;28;20454;-64
2021/11/16 12:28:28;;;;;;;2.47;0.90;;;7.10;99.90;;;;;;5071226;28;20462;-64
2021/11/16 12:31:03;;;;;;;1.63;0.90;;;7.00;99.90;;;;;;5067975;28;20580;-63
2021/11/16 12:33:53;;;;;;;1.30;0.70;;;7.20;99.90;;;;;;5068623;28;20603;-64
2021/11/16 12:36:50;;;;;;;4.40;0.87;;;7.30;99.90;;;;;;5067959;28;20450;-64
2021/11/16 12:39:20;;;;;;;1.37;0.77;;;7.40;99.90;;;;;;5069619;28;20624;-64
2021/11/16 12:41:52;;;;;;;1.50;0.80;;;7.40;99.90;;;;;;5071059;27;20545;-64
2021/11/16 12:44:55;;;;;;;2.20;0.70;;;7.30;99.90;;;;;;5070146;28;20462;-64
2021/11/16 12:47:28;;;;;;;1.37;0.80;;;7.40;99.90;;;;;;5069774;27;20742;-63
2021/11/16 12:50:26;;;;;;;1.90;0.90;;;7.40;99.90;;;;;;5070745;28;20551;-64
2021/11/16 12:53:11;;;;;;;2.10;0.90;;;7.50;99.90;;;;;;5071265;27;20783;-64
2021/11/16 12:55:40;;;;;;;1.90;0.67;;;7.30;99.90;;;;;;5068995;28;20480;-64
2021/11/16 12:58:27;;;;;;;1.67;0.70;;;7.40;99.90;;;;;;5068990;28;20461;-63
2021/11/16 13:01:00;;;;;;;1.23;0.70;;;7.40;99.90;;;;;;5069199;28;20518;-64
2021/11/16 13:03:53;;;;;;;1.10;0.60;;;7.20;99.90;;;;;;5069335;28;20479;-64
2021/11/16 13:06:22;;;;;;;2.10;0.60;;;7.20;99.90;;;;;;5069386;28;20726;-63
2021/11/16 13:08:50;;;;;;;2.00;0.80;;;7.60;99.90;;;;;;5070930;28;20850;-64
2021/11/16 13:11:40;;;;;;;19.33;1.10;;;7.80;99.90;;;;;;5069940;28;20480;-65
2021/11/16 13:14:11;;;;;;;5.77;1.20;;;7.80;99.90;;;;;;5070564;27;20889;-65
2021/11/16 13:16:39;;;;;;;1.60;0.87;;;7.80;99.90;;;;;;5070299;28;20439;-65
2021/11/16 13:19:07;;;;;;;1.93;0.80;;;7.70;99.90;;;;;;5069959;28;21025;-64
2021/11/16 13:21:41;;;;;;;1.57;0.87;;;7.50;99.90;;;;;;5068187;28;20464;-64
2021/11/16 13:24:12;;;;;;;2.00;0.53;;;7.40;99.90;;;;;;5059718;28;20562;-63
2021/11/16 13:26:46;;;;;;;1.70;0.87;;;7.40;99.90;;;;;;5067038;28;20453;-64
2021/11/16 13:29:31;;;;;;;5.30;0.90;;;7.50;99.90;;;;;;5066235;28;20450;-65